sensor_id;sensor_type;location;lat;lon;timestamp;pressure;altitude;pressure_sealevel;temperature;humidity
75051;BME280;63628;47.656;11.310;2023-07-20T00:02:04;94701.84;;;23.89;59.51
75051;BME280;63628;47.656;11.310;2023-07-20T00:04:32;94700.41;;;24.00;58.73
75051;BME280;63628;47.656;11.310;2023-07-20T00:06:59;94702.63;;;23.98;58.83
75051;BME280;63628;47.656;11.310;2023-07-20T00:09:27;94707.56;;;23.96;58.76
75051;BME280;63628;47.656;11.310;2023-07-20T00:11:55;94710.09;;;23.92;58.92
75051;BME280;63628;47.656;11.310;2023-07-20T00:14:22;94717.44;;;23.92;59.17
75051;BME280;63628;47.656;11.310;2023-07-20T00:16:50;94713.13;;;23.91;59.09
75051;BME280;63628;47.656;11.310;2023-07-20T00:19:22;94706.59;;;23.92;58.89
75051;BME280;63628;47.656;11.310;2023-07-20T00:21:49;94711.84;;;23.88;59.18
75051;BME280;63628;47.656;11.310;2023-07-20T00:24:16;94720.28;;;23.87;59.12
75051;BME280;63628;47.656;11.310;2023-07-20T00:26:43;94719.19;;;23.88;58.88
75051;BME280;63628;47.656;11.310;2023-07-20T00:29:11;94717.09;;;23.85;59.28
75051;BME280;63628;47.656;11.310;2023-07-20T00:31:38;94723.94;;;23.82;59.13
75051;BME280;63628;47.656;11.310;2023-07-20T00:34:05;94723.63;;;23.84;58.88
75051;BME280;63628;47.656;11.310;2023-07-20T00:36:32;94719.97;;;23.80;59.32
75051;BME280;63628;47.656;11.310;2023-07-20T00:38:59;94711.06;;;23.79;59.00
75051;BME280;63628;47.656;11.310;2023-07-20T00:41:25;94708.84;;;23.81;58.87
75051;BME280;63628;47.656;11.310;2023-07-20T00:43:55;94714.09;;;23.78;59.30
75051;BME280;63628;47.656;11.310;2023-07-20T00:46:24;94726.31;;;23.75;58.95
75051;BME280;63628;47.656;11.310;2023-07-20T00:48:53;94720.59;;;23.77;59.07
75051;BME280;63628;47.656;11.310;2023-07-20T00:51:20;94708.84;;;23.73;58.91
75051;BME280;63628;47.656;11.310;2023-07-20T00:53:47;94709.63;;;23.73;59.19
75051;BME280;63628;47.656;11.310;2023-07-20T00:56:15;94700.72;;;23.73;59.22
75051;BME280;63628;47.656;11.310;2023-07-20T00:58:42;94696.44;;;23.71;59.10
75051;BME280;63628;47.656;11.310;2023-07-20T01:01:09;94702.78;;;23.76;58.81
75051;BME280;63628;47.656;11.310;2023-07-20T01:03:37;94700.09;;;23.76;58.73
75051;BME280;63628;47.656;11.310;2023-07-20T01:06:15;94706.44;;;23.80;58.52
75051;BME280;63628;47.656;11.310;2023-07-20T01:08:50;94698.66;;;23.69;58.71
75051;BME280;63628;47.656;11.310;2023-07-20T01:11:30;94695.91;;;23.52;56.04
75051;BME280;63628;47.656;11.310;2023-07-20T01:13:58;94695.13;;;22.72;61.60
75051;BME280;63628;47.656;11.310;2023-07-20T01:16:27;94691.63;;;23.51;59.29
75051;BME280;63628;47.656;11.310;2023-07-20T01:18:55;94686.41;;;23.63;58.79
75051;BME280;63628;47.656;11.310;2023-07-20T01:21:27;94685.47;;;23.59;58.77
75051;BME280;63628;47.656;11.310;2023-07-20T01:24:08;94674.00;;;23.62;58.80
75051;BME280;63628;47.656;11.310;2023-07-20T01:27:00;94685.63;;;23.63;58.78
75051;BME280;63628;47.656;11.310;2023-07-20T01:29:54;94690.38;;;23.57;58.91
75051;BME280;63628;47.656;11.310;2023-07-20T01:32:25;94699.75;;;23.60;58.71
75051;BME280;63628;47.656;11.310;2023-07-20T01:34:52;94678.31;;;23.63;58.91
75051;BME280;63628;47.656;11.310;2023-07-20T01:37:21;94677.34;;;23.68;58.65
75051;BME280;63628;47.656;11.310;2023-07-20T01:39:52;94680.44;;;23.27;57.22
75051;BME280;63628;47.656;11.310;2023-07-20T01:42:21;94677.94;;;23.48;59.09
75051;BME280;63628;47.656;11.310;2023-07-20T01:44:50;94678.78;;;23.57;58.55
75051;BME280;63628;47.656;11.310;2023-07-20T01:47:17;94674.97;;;23.58;58.69
75051;BME280;63628;47.656;11.310;2023-07-20T01:49:45;94681.75;;;23.47;59.02
75051;BME280;63628;47.656;11.310;2023-07-20T01:52:12;94674.78;;;23.54;58.62
75051;BME280;63628;47.656;11.310;2023-07-20T01:54:39;94676.03;;;23.48;58.64
75051;BME280;63628;47.656;11.310;2023-07-20T01:57:05;94675.50;;;23.29;57.29
75051;BME280;63628;47.656;11.310;2023-07-20T01:59:32;94683.31;;;23.39;59.14
75051;BME280;63628;47.656;11.310;2023-07-20T02:01:59;94686.06;;;23.48;58.89
75051;BME280;63628;47.656;11.310;2023-07-20T02:04:25;94704.59;;;21.72;63.92
75051;BME280;63628;47.656;11.310;2023-07-20T02:06:53;94697.25;;;23.15;59.76
75051;BME280;63628;47.656;11.310;2023-07-20T02:09:20;94689.94;;;23.16;59.52
75051;BME280;63628;47.656;11.310;2023-07-20T02:11:47;94697.13;;;23.37;59.04
75051;BME280;63628;47.656;11.310;2023-07-20T02:14:13;94685.88;;;23.44;58.80
75051;BME280;63628;47.656;11.310;2023-07-20T02:16:40;94682.25;;;23.49;58.52
75051;BME280;63628;47.656;11.310;2023-07-20T02:19:07;94679.47;;;23.31;58.97
75051;BME280;63628;47.656;11.310;2023-07-20T02:21:33;94673.72;;;23.07;55.84
75051;BME280;63628;47.656;11.310;2023-07-20T02:24:01;94680.56;;;23.22;59.18
75051;BME280;63628;47.656;11.310;2023-07-20T02:26:28;94677.44;;;23.37;58.77
75051;BME280;63628;47.656;11.310;2023-07-20T02:28:55;94678.91;;;23.43;58.49
75051;BME280;63628;47.656;11.310;2023-07-20T02:31:21;94680.75;;;23.34;58.69
75051;BME280;63628;47.656;11.310;2023-07-20T02:33:48;94673.28;;;23.39;58.59
75051;BME280;63628;47.656;11.310;2023-07-20T02:36:15;94671.22;;;23.36;58.60
75051;BME280;63628;47.656;11.310;2023-07-20T02:38:43;94669.00;;;23.38;58.58
75051;BME280;63628;47.656;11.310;2023-07-20T02:41:12;94670.59;;;23.39;58.63
75051;BME280;63628;47.656;11.310;2023-07-20T02:43:39;94661.53;;;23.35;58.67
75051;BME280;63628;47.656;11.310;2023-07-20T02:46:05;94669.16;;;23.25;58.97
75051;BME280;63628;47.656;11.310;2023-07-20T02:48:32;94671.69;;;23.21;59.17
75051;BME280;63628;47.656;11.310;2023-07-20T02:50:59;94667.72;;;23.27;58.61
75051;BME280;63628;47.656;11.310;2023-07-20T02:53:25;94664.06;;;23.32;58.62
75051;BME280;63628;47.656;11.310;2023-07-20T02:55:52;94670.91;;;23.29;58.61
75051;BME280;63628;47.656;11.310;2023-07-20T02:58:21;94674.72;;;23.28;58.62
75051;BME280;63628;47.656;11.310;2023-07-20T03:00:48;94674.53;;;23.25;58.75
75051;BME280;63628;47.656;11.310;2023-07-20T03:03:14;94677.22;;;23.16;58.94
75051;BME280;63628;47.656;11.310;2023-07-20T03:05:41;94683.75;;;23.24;58.69
75051;BME280;63628;47.656;11.310;2023-07-20T03:08:08;94684.38;;;23.12;59.05
75051;BME280;63628;47.656;11.310;2023-07-20T03:10:38;94687.72;;;23.18;58.89
75051;BME280;63628;47.656;11.310;2023-07-20T03:13:06;94686.13;;;23.17;58.72
75051;BME280;63628;47.656;11.310;2023-07-20T03:15:34;94692.81;;;23.19;58.65
75051;BME280;63628;47.656;11.310;2023-07-20T03:18:01;94691.06;;;23.23;58.57
75051;BME280;63628;47.656;11.310;2023-07-20T03:20:27;94683.59;;;22.50;58.93
75051;BME280;63628;47.656;11.310;2023-07-20T03:22:54;94679.06;;;21.06;65.18
75051;BME280;63628;47.656;11.310;2023-07-20T03:25:21;94690.22;;;22.74;60.09
75051;BME280;63628;47.656;11.310;2023-07-20T03:27:48;94692.09;;;22.96;59.24
75051;BME280;63628;47.656;11.310;2023-07-20T03:30:15;94697.06;;;23.03;58.95
75051;BME280;63628;47.656;11.310;2023-07-20T03:32:43;94698.63;;;23.04;58.71
75051;BME280;63628;47.656;11.310;2023-07-20T03:35:10;94697.22;;;23.06;58.87
75051;BME280;63628;47.656;11.310;2023-07-20T03:37:37;94699.44;;;23.04;58.65
75051;BME280;63628;47.656;11.310;2023-07-20T03:40:06;94712.63;;;23.06;58.82
75051;BME280;63628;47.656;11.310;2023-07-20T03:42:34;94704.38;;;23.11;58.56
75051;BME280;63628;47.656;11.310;2023-07-20T03:45:00;94700.34;;;22.91;58.86
75051;BME280;63628;47.656;11.310;2023-07-20T03:47:27;94705.44;;;22.93;59.01
75051;BME280;63628;47.656;11.310;2023-07-20T03:49:55;94703.03;;;22.91;59.31
75051;BME280;63628;47.656;11.310;2023-07-20T03:52:22;94719.09;;;22.96;59.10
75051;BME280;63628;47.656;11.310;2023-07-20T03:54:48;94735.41;;;22.60;58.98
75051;BME280;63628;47.656;11.310;2023-07-20T03:57:15;94748.81;;;22.74;59.88
75051;BME280;63628;47.656;11.310;2023-07-20T03:59:45;94734.72;;;22.10;56.35
75051;BME280;63628;47.656;11.310;2023-07-20T04:02:12;94719.66;;;21.23;61.59
75051;BME280;63628;47.656;11.310;2023-07-20T04:04:38;94701.41;;;22.06;60.93
75051;BME280;63628;47.656;11.310;2023-07-20T04:07:06;94723.88;;;22.46;59.97
75051;BME280;63628;47.656;11.310;2023-07-20T04:09:33;94729.25;;;22.68;59.53
75051;BME280;63628;47.656;11.310;2023-07-20T04:12:00;94732.22;;;22.81;58.66
75051;BME280;63628;47.656;11.310;2023-07-20T04:14:27;94732.25;;;22.67;59.47
75051;BME280;63628;47.656;11.310;2023-07-20T04:16:53;94733.84;;;22.68;59.44
75051;BME280;63628;47.656;11.310;2023-07-20T04:19:20;94737.41;;;22.77;59.13
75051;BME280;63628;47.656;11.310;2023-07-20T04:21:47;94749.41;;;22.71;59.18
75051;BME280;63628;47.656;11.310;2023-07-20T04:24:15;94757.41;;;22.76;59.19
75051;BME280;63628;47.656;11.310;2023-07-20T04:26:42;94760.22;;;22.71;58.79
75051;BME280;63628;47.656;11.310;2023-07-20T04:29:09;94757.69;;;22.74;59.14
75051;BME280;63628;47.656;11.310;2023-07-20T04:31:36;94762.22;;;20.61;64.94
75051;BME280;63628;47.656;11.310;2023-07-20T04:34:02;94768.19;;;20.58;62.92
75051;BME280;63628;47.656;11.310;2023-07-20T04:36:29;94777.94;;;21.82;61.25
75051;BME280;63628;47.656;11.310;2023-07-20T04:38:56;94783.19;;;21.51;57.54
75051;BME280;63628;47.656;11.310;2023-07-20T04:41:24;94795.44;;;21.30;59.75
75051;BME280;63628;47.656;11.310;2023-07-20T04:43:51;94795.50;;;20.98;59.96
75051;BME280;63628;47.656;11.310;2023-07-20T04:46:18;94793.28;;;21.82;56.26
75051;BME280;63628;47.656;11.310;2023-07-20T04:48:45;94787.00;;;19.21;63.92
75051;BME280;63628;47.656;11.310;2023-07-20T04:51:12;94785.09;;;19.46;62.48
75051;BME280;63628;47.656;11.310;2023-07-20T04:53:39;94777.66;;;21.70;61.32
75051;BME280;63628;47.656;11.310;2023-07-20T04:56:05;94772.88;;;22.17;59.80
75051;BME280;63628;47.656;11.310;2023-07-20T04:58:33;94794.59;;;22.34;59.53
75051;BME280;63628;47.656;11.310;2023-07-20T05:01:00;94794.16;;;22.41;59.44
75051;BME280;63628;47.656;11.310;2023-07-20T05:03:27;94792.44;;;22.45;59.16
75051;BME280;63628;47.656;11.310;2023-07-20T05:05:53;94794.81;;;22.46;59.01
75051;BME280;63628;47.656;11.310;2023-07-20T05:08:20;94798.44;;;22.42;59.17
75051;BME280;63628;47.656;11.310;2023-07-20T05:10:48;94800.03;;;22.43;59.25
75051;BME280;63628;47.656;11.310;2023-07-20T05:13:15;94801.31;;;22.45;59.14
75051;BME280;63628;47.656;11.310;2023-07-20T05:15:43;94802.91;;;22.46;58.96
75051;BME280;63628;47.656;11.310;2023-07-20T05:18:10;94790.41;;;20.96;62.12
75051;BME280;63628;47.656;11.310;2023-07-20T05:20:36;94795.91;;;21.73;56.59
75051;BME280;63628;47.656;11.310;2023-07-20T05:23:03;94800.47;;;19.40;64.69
75051;BME280;63628;47.656;11.310;2023-07-20T05:25:31;94799.84;;;20.10;64.04
75051;BME280;63628;47.656;11.310;2023-07-20T05:27:58;94804.91;;;21.55;61.35
75051;BME280;63628;47.656;11.310;2023-07-20T05:30:25;94805.09;;;21.45;60.94
75051;BME280;63628;47.656;11.310;2023-07-20T05:32:52;94802.16;;;20.35;62.02
75051;BME280;63628;47.656;11.310;2023-07-20T05:35:21;94807.03;;;20.84;62.91
75051;BME280;63628;47.656;11.310;2023-07-20T05:37:48;94803.97;;;21.87;60.43
75051;BME280;63628;47.656;11.310;2023-07-20T05:40:15;94803.69;;;21.34;61.82
75051;BME280;63628;47.656;11.310;2023-07-20T05:42:46;94799.31;;;21.24;62.13
75051;BME280;63628;47.656;11.310;2023-07-20T05:45:12;94797.78;;;21.87;60.08
75051;BME280;63628;47.656;11.310;2023-07-20T05:47:39;94806.09;;;21.63;60.92
75051;BME280;63628;47.656;11.310;2023-07-20T05:50:08;94796.38;;;22.03;58.96
75051;BME280;63628;47.656;11.310;2023-07-20T05:52:35;94795.00;;;20.63;61.27
75051;BME280;63628;47.656;11.310;2023-07-20T05:55:02;94794.72;;;19.28;66.84
75051;BME280;63628;47.656;11.310;2023-07-20T05:57:32;94797.94;;;20.10;64.23
75051;BME280;63628;47.656;11.310;2023-07-20T05:59:59;94800.59;;;19.30;67.02
75051;BME280;63628;47.656;11.310;2023-07-20T06:02:26;94793.56;;;20.84;63.33
75051;BME280;63628;47.656;11.310;2023-07-20T06:04:52;94797.00;;;21.04;61.75
75051;BME280;63628;47.656;11.310;2023-07-20T06:07:22;94804.78;;;20.73;63.22
75051;BME280;63628;47.656;11.310;2023-07-20T06:09:49;94800.41;;;21.64;60.73
75051;BME280;63628;47.656;11.310;2023-07-20T06:12:15;94804.78;;;20.40;60.72
75051;BME280;63628;47.656;11.310;2023-07-20T06:14:42;94799.13;;;21.34;61.20
75051;BME280;63628;47.656;11.310;2023-07-20T06:17:08;94801.94;;;20.83;60.69
75051;BME280;63628;47.656;11.310;2023-07-20T06:19:36;94807.31;;;21.57;60.73
75051;BME280;63628;47.656;11.310;2023-07-20T06:22:04;94811.91;;;20.82;59.10
75051;BME280;63628;47.656;11.310;2023-07-20T06:24:32;94803.97;;;19.65;62.95
75051;BME280;63628;47.656;11.310;2023-07-20T06:26:59;94809.84;;;20.93;61.88
75051;BME280;63628;47.656;11.310;2023-07-20T06:29:25;94805.50;;;21.25;58.74
75051;BME280;63628;47.656;11.310;2023-07-20T06:31:52;94807.28;;;21.70;60.09
75051;BME280;63628;47.656;11.310;2023-07-20T06:34:19;94784.22;;;20.96;61.05
75051;BME280;63628;47.656;11.310;2023-07-20T06:36:49;94791.59;;;20.57;62.33
75051;BME280;63628;47.656;11.310;2023-07-20T06:39:16;94791.38;;;20.86;59.00
75051;BME280;63628;47.656;11.310;2023-07-20T06:41:47;94789.69;;;19.88;64.30
75051;BME280;63628;47.656;11.310;2023-07-20T06:44:13;94791.63;;;21.45;60.81
75051;BME280;63628;47.656;11.310;2023-07-20T06:46:40;94796.09;;;21.77;60.09
75051;BME280;63628;47.656;11.310;2023-07-20T06:49:07;94792.38;;;21.87;59.48
75051;BME280;63628;47.656;11.310;2023-07-20T06:51:37;94793.19;;;21.87;59.80
75051;BME280;63628;47.656;11.310;2023-07-20T06:54:04;94792.09;;;21.88;59.66
75051;BME280;63628;47.656;11.310;2023-07-20T06:56:31;94793.06;;;21.92;59.56
75051;BME280;63628;47.656;11.310;2023-07-20T06:59:01;94797.66;;;21.92;59.50
75051;BME280;63628;47.656;11.310;2023-07-20T07:01:29;94793.50;;;21.86;59.46
75051;BME280;63628;47.656;11.310;2023-07-20T07:03:56;94804.16;;;21.91;59.74
75051;BME280;63628;47.656;11.310;2023-07-20T07:06:23;94802.75;;;21.93;59.44
75051;BME280;63628;47.656;11.310;2023-07-20T07:08:51;94787.94;;;21.27;59.70
75051;BME280;63628;47.656;11.310;2023-07-20T07:11:18;94792.84;;;21.25;61.23
75051;BME280;63628;47.656;11.310;2023-07-20T07:13:45;94788.03;;;21.77;60.21
75051;BME280;63628;47.656;11.310;2023-07-20T07:16:14;94788.09;;;21.86;59.59
75051;BME280;63628;47.656;11.310;2023-07-20T07:18:46;94782.34;;;19.56;64.81
75051;BME280;63628;47.656;11.310;2023-07-20T07:21:13;94796.97;;;19.40;67.00
75051;BME280;63628;47.656;11.310;2023-07-20T07:23:40;94798.75;;;20.48;62.67
75051;BME280;63628;47.656;11.310;2023-07-20T07:26:06;94800.63;;;20.48;61.43
75051;BME280;63628;47.656;11.310;2023-07-20T07:28:33;94794.44;;;20.80;62.50
75051;BME280;63628;47.656;11.310;2023-07-20T07:30:59;94792.19;;;18.89;66.91
75051;BME280;63628;47.656;11.310;2023-07-20T07:33:28;94801.41;;;18.78;66.90
75051;BME280;63628;47.656;11.310;2023-07-20T07:35:55;94799.97;;;18.90;67.90
75051;BME280;63628;47.656;11.310;2023-07-20T07:38:21;94790.84;;;19.63;64.71
75051;BME280;63628;47.656;11.310;2023-07-20T07:41:08;94786.41;;;19.91;64.85
75051;BME280;63628;47.656;11.310;2023-07-20T07:43:35;94795.22;;;19.30;64.53
75051;BME280;63628;47.656;11.310;2023-07-20T07:46:02;94796.31;;;19.05;64.13
75051;BME280;63628;47.656;11.310;2023-07-20T07:48:30;94789.97;;;18.67;61.28
75051;BME280;63628;47.656;11.310;2023-07-20T07:50:57;94790.94;;;18.47;67.36
75051;BME280;63628;47.656;11.310;2023-07-20T07:53:23;94753.84;;;18.30;67.71
75051;BME280;63628;47.656;11.310;2023-07-20T07:55:52;94790.94;;;19.05;64.37
75051;BME280;63628;47.656;11.310;2023-07-20T07:58:19;94796.78;;;19.60;66.24
75051;BME280;63628;47.656;11.310;2023-07-20T08:00:45;94793.03;;;19.99;62.85
75051;BME280;63628;47.656;11.310;2023-07-20T08:03:14;94791.94;;;19.81;60.74
75051;BME280;63628;47.656;11.310;2023-07-20T08:05:42;94788.59;;;20.45;61.48
75051;BME280;63628;47.656;11.310;2023-07-20T08:08:09;94787.03;;;20.58;61.70
75051;BME280;63628;47.656;11.310;2023-07-20T08:10:36;94788.38;;;20.42;61.48
75051;BME280;63628;47.656;11.310;2023-07-20T08:13:02;94791.13;;;20.69;60.92
75051;BME280;63628;47.656;11.310;2023-07-20T08:15:29;94799.53;;;21.28;60.92
75051;BME280;63628;47.656;11.310;2023-07-20T08:17:56;94794.00;;;21.05;58.75
75051;BME280;63628;47.656;11.310;2023-07-20T08:20:23;94793.09;;;20.31;54.13
75051;BME280;63628;47.656;11.310;2023-07-20T08:22:55;94790.63;;;20.67;60.53
75051;BME280;63628;47.656;11.310;2023-07-20T08:25:22;94791.50;;;21.09;60.62
75051;BME280;63628;47.656;11.310;2023-07-20T08:27:49;94790.13;;;21.11;59.14
75051;BME280;63628;47.656;11.310;2023-07-20T08:30:16;94794.63;;;20.70;60.75
75051;BME280;63628;47.656;11.310;2023-07-20T08:32:43;94796.47;;;20.55;60.32
75051;BME280;63628;47.656;11.310;2023-07-20T08:35:09;94804.00;;;20.40;60.62
75051;BME280;63628;47.656;11.310;2023-07-20T08:37:36;94799.63;;;20.06;60.72
75051;BME280;63628;47.656;11.310;2023-07-20T08:40:05;94800.19;;;19.66;63.46
75051;BME280;63628;47.656;11.310;2023-07-20T08:42:35;94804.28;;;20.01;61.46
75051;BME280;63628;47.656;11.310;2023-07-20T08:45:06;94800.56;;;20.15;61.45
75051;BME280;63628;47.656;11.310;2023-07-20T08:47:34;94798.28;;;20.60;60.82
75051;BME280;63628;47.656;11.310;2023-07-20T08:50:03;94791.94;;;21.57;59.42
75051;BME280;63628;47.656;11.310;2023-07-20T08:52:34;94791.56;;;22.36;62.73
75051;BME280;63628;47.656;11.310;2023-07-20T08:55:01;94778.47;;;22.88;59.48
75051;BME280;63628;47.656;11.310;2023-07-20T08:57:32;94786.56;;;22.21;57.80
75051;BME280;63628;47.656;11.310;2023-07-20T09:00:00;94779.25;;;22.43;56.70
75051;BME280;63628;47.656;11.310;2023-07-20T09:02:28;94780.22;;;22.25;57.15
75051;BME280;63628;47.656;11.310;2023-07-20T09:04:55;94779.47;;;21.97;57.60
75051;BME280;63628;47.656;11.310;2023-07-20T09:07:23;94772.31;;;21.93;57.00
75051;BME280;63628;47.656;11.310;2023-07-20T09:09:50;94769.78;;;21.60;59.21
75051;BME280;63628;47.656;11.310;2023-07-20T09:12:17;94765.50;;;21.59;55.04
75051;BME280;63628;47.656;11.310;2023-07-20T09:14:45;94762.13;;;21.90;58.20
75051;BME280;63628;47.656;11.310;2023-07-20T09:17:15;94759.28;;;21.72;58.64
75051;BME280;63628;47.656;11.310;2023-07-20T09:19:46;94760.50;;;22.83;56.25
75051;BME280;63628;47.656;11.310;2023-07-20T09:22:14;94751.75;;;23.26;53.26
75051;BME280;63628;47.656;11.310;2023-07-20T09:24:41;94759.81;;;22.77;54.69
75051;BME280;63628;47.656;11.310;2023-07-20T09:27:09;94756.59;;;24.12;50.68
75051;BME280;63628;47.656;11.310;2023-07-20T09:29:48;94760.84;;;23.87;49.87
75051;BME280;63628;47.656;11.310;2023-07-20T09:32:18;94755.47;;;24.21;48.17
75051;BME280;63628;47.656;11.310;2023-07-20T09:34:49;94752.56;;;24.00;51.39
75051;BME280;63628;47.656;11.310;2023-07-20T09:37:20;94749.88;;;24.00;50.21
75051;BME280;63628;47.656;11.310;2023-07-20T09:39:47;94751.97;;;24.21;53.62
75051;BME280;63628;47.656;11.310;2023-07-20T09:42:16;94746.78;;;22.80;55.27
75051;BME280;63628;47.656;11.310;2023-07-20T09:44:47;94748.72;;;22.34;53.03
75051;BME280;63628;47.656;11.310;2023-07-20T09:47:21;94740.88;;;22.24;55.99
75051;BME280;63628;47.656;11.310;2023-07-20T09:49:58;94733.50;;;22.83;55.83
75051;BME280;63628;47.656;11.310;2023-07-20T09:52:29;94730.53;;;23.42;53.89
75051;BME280;63628;47.656;11.310;2023-07-20T09:54:59;94742.63;;;23.04;55.69
75051;BME280;63628;47.656;11.310;2023-07-20T09:57:27;94732.56;;;24.10;55.56
75051;BME280;63628;47.656;11.310;2023-07-20T09:59:56;94740.06;;;22.99;54.96
75051;BME280;63628;47.656;11.310;2023-07-20T10:02:45;94739.16;;;22.28;57.38
75051;BME280;63628;47.656;11.310;2023-07-20T10:05:13;94747.50;;;22.18;58.08
75051;BME280;63628;47.656;11.310;2023-07-20T10:07:44;94740.56;;;22.48;56.96
75051;BME280;63628;47.656;11.310;2023-07-20T10:10:14;94742.94;;;23.03;54.55
75051;BME280;63628;47.656;11.310;2023-07-20T10:12:41;94741.94;;;22.90;53.56
75051;BME280;63628;47.656;11.310;2023-07-20T10:15:16;94734.59;;;22.82;54.50
75051;BME280;63628;47.656;11.310;2023-07-20T10:17:53;94724.91;;;22.59;54.75
75051;BME280;63628;47.656;11.310;2023-07-20T10:20:21;94743.84;;;22.90;54.48
75051;BME280;63628;47.656;11.310;2023-07-20T10:22:49;94739.38;;;23.82;55.49
75051;BME280;63628;47.656;11.310;2023-07-20T10:25:20;94734.75;;;23.82;54.02
75051;BME280;63628;47.656;11.310;2023-07-20T10:27:47;94727.75;;;24.50;56.87
75051;BME280;63628;47.656;11.310;2023-07-20T10:30:17;94731.72;;;24.61;54.11
75051;BME280;63628;47.656;11.310;2023-07-20T10:32:44;94732.81;;;24.69;50.95
75051;BME280;63628;47.656;11.310;2023-07-20T10:35:13;94729.44;;;23.51;49.14
75051;BME280;63628;47.656;11.310;2023-07-20T10:37:47;94722.94;;;24.73;50.34
75051;BME280;63628;47.656;11.310;2023-07-20T10:40:30;94729.53;;;22.81;52.64
75051;BME280;63628;47.656;11.310;2023-07-20T10:42:59;94725.31;;;22.97;54.65
75051;BME280;63628;47.656;11.310;2023-07-20T10:45:40;94728.88;;;22.61;52.26
75051;BME280;63628;47.656;11.310;2023-07-20T10:48:13;94726.16;;;22.08;52.07
75051;BME280;63628;47.656;11.310;2023-07-20T10:50:41;94719.00;;;21.67;53.91
75051;BME280;63628;47.656;11.310;2023-07-20T10:53:13;94715.22;;;21.91;54.66
75051;BME280;63628;47.656;11.310;2023-07-20T10:55:41;94712.34;;;21.87;52.90
75051;BME280;63628;47.656;11.310;2023-07-20T10:58:10;94706.31;;;21.68;55.59
75051;BME280;63628;47.656;11.310;2023-07-20T11:00:54;94701.53;;;22.23;53.76
75051;BME280;63628;47.656;11.310;2023-07-20T11:03:29;94713.84;;;21.16;54.53
75051;BME280;63628;47.656;11.310;2023-07-20T11:09:08;94703.84;;;21.58;52.02
75051;BME280;63628;47.656;11.310;2023-07-20T11:11:38;94697.63;;;22.60;53.35
75051;BME280;63628;47.656;11.310;2023-07-20T11:14:07;94696.09;;;22.99;50.58
75051;BME280;63628;47.656;11.310;2023-07-20T11:16:37;94682.78;;;23.20;50.83
75051;BME280;63628;47.656;11.310;2023-07-20T11:19:06;94693.88;;;22.17;52.02
75051;BME280;63628;47.656;11.310;2023-07-20T11:21:37;94685.25;;;22.90;52.79
75051;BME280;63628;47.656;11.310;2023-07-20T11:24:17;94683.16;;;23.35;51.26
75051;BME280;63628;47.656;11.310;2023-07-20T11:26:45;94683.31;;;22.82;53.40
75051;BME280;63628;47.656;11.310;2023-07-20T11:29:13;94690.31;;;22.30;54.16
75051;BME280;63628;47.656;11.310;2023-07-20T11:31:58;94682.88;;;23.46;52.39
75051;BME280;63628;47.656;11.310;2023-07-20T11:34:25;94682.91;;;22.97;53.10
75051;BME280;63628;47.656;11.310;2023-07-20T11:36:52;94680.13;;;23.28;52.94
75051;BME280;63628;47.656;11.310;2023-07-20T11:39:22;94676.75;;;23.14;53.64
75051;BME280;63628;47.656;11.310;2023-07-20T11:41:52;94666.97;;;23.53;52.66
75051;BME280;63628;47.656;11.310;2023-07-20T11:44:20;94670.63;;;23.48;53.08
75051;BME280;63628;47.656;11.310;2023-07-20T11:47:01;94675.41;;;22.86;51.75
75051;BME280;63628;47.656;11.310;2023-07-20T11:49:34;94679.56;;;21.94;54.01
75051;BME280;63628;47.656;11.310;2023-07-20T11:52:01;94671.94;;;22.09;55.33
75051;BME280;63628;47.656;11.310;2023-07-20T11:54:28;94674.97;;;21.72;53.81
75051;BME280;63628;47.656;11.310;2023-07-20T11:56:55;94629.41;;;21.62;53.83
75051;BME280;63628;47.656;11.310;2023-07-20T11:59:22;94672.47;;;21.75;54.58
75051;BME280;63628;47.656;11.310;2023-07-20T12:01:49;94669.38;;;22.27;56.37
75051;BME280;63628;47.656;11.310;2023-07-20T12:04:17;94654.41;;;22.21;54.76
75051;BME280;63628;47.656;11.310;2023-07-20T12:06:45;94644.44;;;22.21;55.16
75051;BME280;63628;47.656;11.310;2023-07-20T12:09:13;94649.63;;;22.49;54.08
75051;BME280;63628;47.656;11.310;2023-07-20T12:11:42;94649.16;;;22.16;57.12
75051;BME280;63628;47.656;11.310;2023-07-20T12:14:09;94641.97;;;22.33;56.72
75051;BME280;63628;47.656;11.310;2023-07-20T12:16:43;94638.81;;;22.40;53.47
75051;BME280;63628;47.656;11.310;2023-07-20T12:19:11;94638.41;;;22.24;56.79
75051;BME280;63628;47.656;11.310;2023-07-20T12:21:41;94634.72;;;22.51;54.68
75051;BME280;63628;47.656;11.310;2023-07-20T12:24:10;94635.22;;;22.53;55.42
75051;BME280;63628;47.656;11.310;2023-07-20T12:26:37;94626.03;;;22.54;58.37
75051;BME280;63628;47.656;11.310;2023-07-20T12:29:04;94619.44;;;22.38;54.20
75051;BME280;63628;47.656;11.310;2023-07-20T12:31:33;94621.63;;;22.27;55.11
75051;BME280;63628;47.656;11.310;2023-07-20T12:34:02;94618.63;;;21.62;55.78
75051;BME280;63628;47.656;11.310;2023-07-20T12:36:28;94617.19;;;22.31;53.58
75051;BME280;63628;47.656;11.310;2023-07-20T12:38:56;94611.75;;;22.00;53.70
75051;BME280;63628;47.656;11.310;2023-07-20T12:41:24;94614.41;;;21.69;54.32
75051;BME280;63628;47.656;11.310;2023-07-20T12:43:51;94607.69;;;22.34;59.08
75051;BME280;63628;47.656;11.310;2023-07-20T12:46:19;94607.34;;;22.66;54.67
75051;BME280;63628;47.656;11.310;2023-07-20T12:48:45;94604.44;;;22.94;54.35
75051;BME280;63628;47.656;11.310;2023-07-20T12:51:15;94603.41;;;22.33;53.48
75051;BME280;63628;47.656;11.310;2023-07-20T12:53:43;94607.13;;;22.85;54.54
75051;BME280;63628;47.656;11.310;2023-07-20T12:56:11;94606.22;;;23.33;54.58
75051;BME280;63628;47.656;11.310;2023-07-20T12:58:41;94606.19;;;22.98;55.09
75051;BME280;63628;47.656;11.310;2023-07-20T13:01:08;94608.56;;;22.91;53.66